Time;durP1;ratioP1;P1;durP2;ratioP2;P2;SDS_P1;SDS_P2;PMS_P1;PMS_P2;Temp;Humidity;BMP_temperature;BMP_pressure;BME280_temperature;BME280_humidity;BME280_pressure;Samples;Min_cycle;Max_cycle;Signal;HPM_P1;HPM_P2
2022/08/08 00:00:13;;;;;;;61.42;50.88;;;25.00;48.30;;;;;;4936493;28;91581;-55
2022/08/08 00:03:08;;;;;;;60.60;50.80;;;25.00;48.30;;;;;;4935670;28;91592;-49
2022/08/08 00:05:36;;;;;;;61.25;51.15;;;25.00;48.30;;;;;;4934113;28;91865;-54
2022/08/08 00:08:39;;;;;;;61.15;50.95;;;25.00;48.30;;;;;;4942441;28;89404;-52
2022/08/08 00:11:40;;;;;;;60.83;50.88;;;25.00;48.30;;;;;;4934915;28;90302;-53
2022/08/08 00:14:13;;;;;;;60.85;50.75;;;24.90;48.40;;;;;;4936066;28;93402;-47
2022/08/08 00:16:48;;;;;;;61.42;50.90;;;24.90;48.40;;;;;;4928278;28;92919;-53
2022/08/08 00:19:49;;;;;;;62.28;51.05;;;24.90;48.40;;;;;;4929914;28;94943;-51
2022/08/08 00:22:38;;;;;;;61.07;51.07;;;24.90;48.50;;;;;;4945705;28;90157;-51
2022/08/08 00:25:12;;;;;;;61.85;50.92;;;25.00;48.40;;;;;;4948402;28;92594;-53
2022/08/08 00:27:40;;;;;;;61.15;50.95;;;24.90;48.40;;;;;;4947130;28;91695;-54
2022/08/08 00:30:09;;;;;;;61.00;51.15;;;24.90;48.50;;;;;;4943852;28;89937;-51
2022/08/08 00:32:59;;;;;;;60.53;50.85;;;24.90;48.50;;;;;;4939928;28;89824;-52
2022/08/08 00:35:44;;;;;;;60.85;50.85;;;24.90;48.50;;;;;;4935587;28;90594;-50
2022/08/08 00:38:19;;;;;;;61.38;50.78;;;24.90;48.70;;;;;;4941695;28;93747;-50
2022/08/08 00:41:12;;;;;;;61.10;50.90;;;24.90;48.60;;;;;;4925984;28;94880;-48
2022/08/08 00:43:52;;;;;;;61.08;51.13;;;24.90;48.60;;;;;;4934029;28;97463;-54
2022/08/08 00:46:21;;;;;;;60.40;50.83;;;24.90;48.70;;;;;;4936905;28;90220;-51
2022/08/08 00:48:58;;;;;;;61.13;50.63;;;24.90;48.70;;;;;;4934437;28;90917;-49
2022/08/08 00:51:48;;;;;;;61.15;51.22;;;24.90;48.70;;;;;;4944111;28;90388;-54
2022/08/08 00:54:55;;;;;;;60.72;51.13;;;24.90;48.70;;;;;;4934927;28;92306;-53
2022/08/08 00:57:32;;;;;;;61.13;50.75;;;24.90;48.60;;;;;;4942324;28;94395;-50
2022/08/08 01:00:15;;;;;;;61.05;50.75;;;24.90;48.60;;;;;;4942678;28;89907;-48
2022/08/08 01:03:22;;;;;;;61.47;50.85;;;24.90;48.60;;;;;;4939677;28;92008;-52
2022/08/08 01:06:27;;;;;;;59.97;50.65;;;24.90;48.70;;;;;;4943089;28;90530;-53
2022/08/08 01:09:11;;;;;;;60.85;50.85;;;24.80;48.70;;;;;;4943593;28;92252;-48
2022/08/08 01:12:04;;;;;;;59.97;50.75;;;24.80;48.60;;;;;;4943728;28;94462;-53
2022/08/08 01:15:04;;;;;;;60.55;50.70;;;24.80;48.70;;;;;;4938477;28;90449;-54
2022/08/08 01:17:57;;;;;;;61.20;50.95;;;24.80;48.70;;;;;;4936861;28;93230;-53
2022/08/08 01:20:49;;;;;;;59.85;50.47;;;24.80;48.80;;;;;;4935446;28;89945;-53
2022/08/08 01:23:30;;;;;;;60.13;50.78;;;24.80;48.70;;;;;;4935708;28;90199;-51
2022/08/08 01:26:18;;;;;;;59.93;50.80;;;24.80;48.70;;;;;;4947519;28;89636;-47
2022/08/08 01:29:03;;;;;;;60.28;50.70;;;24.80;48.70;;;;;;4936234;28;96789;-53
2022/08/08 01:31:56;;;;;;;60.10;51.00;;;24.80;48.70;;;;;;4940567;28;97752;-51
2022/08/08 01:34:24;;;;;;;59.85;50.63;;;24.80;48.70;;;;;;4934191;28;90027;-47
2022/08/08 01:37:15;;;;;;;60.28;50.72;;;24.80;48.20;;;;;;4937196;28;89875;-52
2022/08/08 01:40:08;;;;;;;60.95;51.08;;;24.80;48.80;;;;;;4934112;28;92974;-48
2022/08/08 01:42:50;;;;;;;60.15;50.75;;;24.80;49.00;;;;;;4937134;28;94755;-50
2022/08/08 01:45:30;;;;;;;60.75;50.88;;;24.70;49.00;;;;;;4945307;28;90556;-52
2022/08/08 01:48:22;;;;;;;60.20;50.85;;;24.70;49.00;;;;;;4932093;28;89836;-49
2022/08/08 01:51:00;;;;;;;59.78;50.50;;;24.70;48.90;;;;;;4930256;28;89914;-48
2022/08/08 01:53:32;;;;;;;60.22;50.80;;;24.70;48.90;;;;;;4945346;28;91873;-53
2022/08/08 01:56:29;;;;;;;59.95;50.75;;;24.70;49.00;;;;;;4937073;28;91472;-48
2022/08/08 01:59:28;;;;;;;59.90;50.67;;;24.70;48.90;;;;;;4920749;28;94376;-50
2022/08/08 02:02:09;;;;;;;60.38;50.92;;;24.70;49.00;;;;;;4935077;28;93121;-48
2022/08/08 02:04:40;;;;;;;59.90;50.85;;;24.70;49.00;;;;;;4932333;28;91628;-50
2022/08/08 02:07:18;;;;;;;;;;;24.70;49.00;;;;;;4937031;28;91329;-50
2022/08/08 02:10:06;;;;;;;59.22;50.42;;;24.60;49.00;;;;;;4942446;28;89552;-52
2022/08/08 02:12:47;;;;;;;60.67;50.63;;;24.70;49.10;;;;;;4939922;28;90565;-51
2022/08/08 02:15:30;;;;;;;60.03;50.63;;;24.60;49.10;;;;;;4941927;28;89962;-51
2022/08/08 02:18:25;;;;;;;59.78;50.85;;;24.60;49.20;;;;;;4936202;28;90432;-48
2022/08/08 02:24:18;;;;;;;60.28;50.72;;;24.60;49.20;;;;;;4949627;28;89809;-55
2022/08/08 02:26:55;;;;;;;59.83;50.83;;;24.60;49.20;;;;;;4920310;28;90110;-54
2022/08/08 02:29:53;;;;;;;60.22;50.83;;;24.60;49.20;;;;;;4935665;28;89665;-49
2022/08/08 02:32:37;;;;;;;60.75;50.95;;;24.60;49.30;;;;;;4933933;28;90321;-53
2022/08/08 02:35:08;;;;;;;60.83;51.05;;;24.50;49.30;;;;;;4932360;28;92338;-53
2022/08/08 02:38:11;;;;;;;60.75;51.10;;;24.60;49.50;;;;;;4934953;28;92676;-49
2022/08/08 02:40:36;;;;;;;60.08;51.03;;;24.50;49.40;;;;;;4938274;28;90059;-53
2022/08/08 02:43:20;;;;;;;60.83;50.88;;;24.50;49.50;;;;;;4933611;28;91396;-47
2022/08/08 02:46:04;;;;;;;60.20;51.20;;;24.40;49.60;;;;;;4932103;28;91279;-48
2022/08/08 02:48:54;;;;;;;60.42;50.75;;;24.50;49.60;;;;;;4941097;28;91319;-48
2022/08/08 02:51:45;;;;;;;60.60;51.05;;;24.50;49.60;;;;;;4943211;28;92159;-47
2022/08/08 02:54:17;;;;;;;;;;;24.50;49.60;;;;;;4929069;28;88954;-51
2022/08/08 02:57:42;;;;;;;60.85;50.78;;;24.50;49.60;;;;;;4942472;28;89813;-47
2022/08/08 03:00:32;;;;;;;60.38;51.00;;;24.50;49.60;;;;;;4938510;28;90385;-53
2022/08/08 03:03:19;;;;;;;60.15;50.97;;;24.50;49.60;;;;;;4937424;28;96183;-52
2022/08/08 03:06:06;;;;;;;60.33;51.35;;;24.40;49.70;;;;;;4939746;28;90347;-51
2022/08/08 03:09:00;;;;;;;60.25;50.75;;;24.40;49.70;;;;;;4945502;28;89809;-50
2022/08/08 03:12:02;;;;;;;60.90;51.17;;;24.40;49.70;;;;;;4940130;28;90015;-53
2022/08/08 03:14:47;;;;;;;62.13;50.90;;;24.40;49.70;;;;;;4930543;28;90051;-53
2022/08/08 03:17:38;;;;;;;60.63;50.78;;;24.40;49.70;;;;;;4931779;28;92599;-52
2022/08/08 03:20:05;;;;;;;60.05;51.15;;;24.40;49.70;;;;;;4940082;28;92194;-54
2022/08/08 03:22:31;;;;;;;59.45;50.92;;;24.40;49.70;;;;;;4937282;28;89304;-51
2022/08/08 03:24:59;;;;;;;60.60;50.70;;;24.40;49.70;;;;;;4932516;28;91405;-54
2022/08/08 03:27:34;;;;;;;60.05;50.95;;;24.40;49.80;;;;;;4929862;28;96006;-53
2022/08/08 03:30:21;;;;;;;60.03;50.97;;;24.40;49.80;;;;;;4936091;28;92379;-55
2022/08/08 03:35:37;;;;;;;60.13;50.95;;;24.40;49.90;;;;;;4940031;28;96092;-52
2022/08/08 03:38:02;;;;;;;60.42;50.90;;;24.40;49.80;;;;;;4931307;28;90996;-53
2022/08/08 03:40:28;;;;;;;61.30;51.15;;;24.40;49.80;;;;;;4933614;28;89417;-49
2022/08/08 03:42:54;;;;;;;60.10;50.67;;;24.40;49.80;;;;;;4926771;28;93154;-54
2022/08/08 03:45:22;;;;;;;60.05;51.10;;;24.30;49.80;;;;;;4943343;28;92948;-52
2022/08/08 03:48:01;;;;;;;60.22;50.83;;;24.40;49.80;;;;;;4942935;28;90764;-51
2022/08/08 03:50:28;;;;;;;60.63;51.25;;;24.30;49.90;;;;;;4931756;28;91492;-50
2022/08/08 03:52:54;;;;;;;60.00;51.03;;;24.30;49.80;;;;;;4924867;28;90134;-54
2022/08/08 03:55:21;;;;;;;59.60;50.60;;;24.30;49.90;;;;;;4933192;28;91012;-54
2022/08/08 03:57:53;;;;;;;59.70;50.85;;;24.30;49.90;;;;;;4950022;28;89928;-50
2022/08/08 04:00:24;;;;;;;60.33;50.88;;;24.30;49.90;;;;;;4934001;28;91091;-52
2022/08/08 04:03:05;;;;;;;60.15;50.63;;;24.30;50.00;;;;;;4937134;28;94658;-50
2022/08/08 04:05:33;;;;;;;60.15;50.97;;;24.20;49.90;;;;;;4941290;28;93355;-50
2022/08/08 04:08:00;;;;;;;60.05;51.13;;;24.20;50.00;;;;;;4936746;28;89969;-50
2022/08/08 04:10:27;;;;;;;59.58;50.78;;;24.30;50.00;;;;;;4935929;28;94030;-53
2022/08/08 04:12:54;;;;;;;60.78;51.20;;;24.20;50.00;;;;;;4928772;28;90847;-52
2022/08/08 04:15:20;;;;;;;60.72;51.30;;;24.20;50.00;;;;;;4946640;28;90182;-48
2022/08/08 04:17:45;;;;;;;60.00;51.17;;;24.20;50.00;;;;;;4942650;28;92362;-51
2022/08/08 04:20:11;;;;;;;59.75;50.53;;;24.20;50.10;;;;;;4932793;28;92603;-51
2022/08/08 04:22:37;;;;;;;59.53;50.88;;;24.20;50.10;;;;;;4932953;28;90358;-53
2022/08/08 04:25:04;;;;;;;59.72;50.90;;;24.20;50.00;;;;;;4943193;28;90206;-50
2022/08/08 04:27:30;;;;;;;60.78;51.10;;;24.20;50.10;;;;;;4950216;28;89808;-53
2022/08/08 04:29:56;;;;;;;60.03;50.80;;;24.10;50.20;;;;;;4944660;28;89847;-53
2022/08/08 04:32:21;;;;;;;59.72;50.80;;;24.20;50.30;;;;;;4938569;28;90466;-49
2022/08/08 04:34:47;;;;;;;60.85;51.17;;;24.10;50.30;;;;;;4947556;28;93003;-52
2022/08/08 04:37:13;;;;;;;60.05;50.88;;;24.10;50.30;;;;;;4949583;28;89100;-49
2022/08/08 04:39:39;;;;;;;60.00;50.78;;;24.10;50.30;;;;;;4935749;28;94828;-52
2022/08/08 04:42:05;;;;;;;60.35;51.00;;;24.10;50.30;;;;;;4942336;28;89868;-47
2022/08/08 04:44:30;;;;;;;59.47;51.05;;;24.10;50.30;;;;;;4947058;28;93843;-49
2022/08/08 04:46:56;;;;;;;61.65;51.00;;;24.10;50.40;;;;;;4932613;28;90311;-53
2022/08/08 04:49:22;;;;;;;59.95;51.03;;;24.10;50.40;;;;;;4934029;28;93246;-53
2022/08/08 04:51:47;;;;;;;59.88;50.88;;;24.10;50.30;;;;;;4932601;28;91453;-53
2022/08/08 04:54:13;;;;;;;60.53;51.28;;;24.10;50.30;;;;;;4933731;28;93267;-49
2022/08/08 04:56:38;;;;;;;60.95;51.50;;;24.10;50.40;;;;;;4937998;28;92575;-52
2022/08/08 04:59:04;;;;;;;59.92;50.92;;;24.10;50.40;;;;;;4940879;28;90254;-50
2022/08/08 05:01:30;;;;;;;60.15;50.92;;;24.10;50.30;;;;;;4932972;28;90705;-52
2022/08/08 05:03:55;;;;;;;60.10;50.92;;;24.10;50.50;;;;;;4937558;28;92021;-51
2022/08/08 05:06:21;;;;;;;59.50;50.63;;;24.10;50.50;;;;;;4943849;28;92644;-50
2022/08/08 05:08:47;;;;;;;60.25;51.22;;;24.10;50.40;;;;;;4941668;28;94979;-50
2022/08/08 05:11:13;;;;;;;60.05;51.03;;;24.10;50.50;;;;;;4927805;28;90755;-51
2022/08/08 05:13:40;;;;;;;61.10;50.88;;;24.10;50.40;;;;;;4941603;28;92616;-54
2022/08/08 05:16:05;;;;;;;59.60;50.95;;;24.10;50.50;;;;;;4932992;28;90213;-50
2022/08/08 05:18:32;;;;;;;60.33;51.03;;;24.10;50.50;;;;;;4943062;28;93508;-52
2022/08/08 05:20:58;;;;;;;59.95;51.08;;;24.10;50.50;;;;;;4940778;28;93970;-54
2022/08/08 05:23:24;;;;;;;62.28;50.72;;;24.00;50.40;;;;;;4928879;28;90463;-49
2022/08/08 05:25:50;;;;;;;59.30;50.72;;;24.10;50.50;;;;;;4932009;28;91750;-49
2022/08/08 05:28:16;;;;;;;60.05;50.63;;;24.10;50.70;;;;;;4944648;28;90150;-55
2022/08/08 05:30:42;;;;;;;60.25;50.95;;;24.10;50.60;;;;;;4944546;28;92653;-50
2022/08/08 05:33:08;;;;;;;74.07;60.45;;;24.10;50.60;;;;;;4934328;28;93499;-52
2022/08/08 05:35:34;;;;;;;78.10;64.25;;;23.80;50.80;;;;;;4936226;28;91393;-52
2022/08/08 05:38:03;;;;;;;84.72;67.63;;;22.90;53.60;;;;;;4940168;28;90401;-55
2022/08/08 05:40:30;;;;;;;85.32;67.72;;;22.60;54.40;;;;;;4940794;28;89949;-51
2022/08/08 05:43:04;;;;;;;78.28;65.30;;;22.50;54.00;;;;;;4943576;28;90193;-50
2022/08/08 05:45:36;;;;;;;83.28;64.00;;;22.60;53.90;;;;;;4934104;28;91493;-53
2022/08/08 05:48:04;;;;;;;82.60;65.78;;;22.60;54.10;;;;;;4926893;28;90575;-54
2022/08/08 05:50:31;;;;;;;83.82;66.43;;;22.60;54.00;;;;;;4921439;28;89836;-54
2022/08/08 05:52:57;;;;;;;78.28;64.57;;;22.50;54.70;;;;;;4931574;28;90503;-54
2022/08/08 05:55:23;;;;;;;77.65;63.15;;;22.20;55.00;;;;;;4935717;28;94500;-55
2022/08/08 05:57:52;;;;;;;78.45;63.38;;;22.30;55.60;;;;;;4938075;28;91465;-55
2022/08/08 06:00:18;;;;;;;76.35;61.00;;;22.40;55.40;;;;;;4937290;28;90255;-56
2022/08/08 06:05:33;;;;;;;76.65;62.47;;;22.30;55.90;;;;;;4931277;28;91037;-55
2022/08/08 06:07:59;;;;;;;77.72;61.47;;;22.40;56.00;;;;;;4943440;28;90059;-51
2022/08/08 06:10:30;;;;;;;76.13;62.03;;;22.40;56.20;;;;;;4934649;28;90154;-51
2022/08/08 06:12:56;;;;;;;81.70;66.03;;;22.30;56.20;;;;;;4940507;28;95997;-53
2022/08/08 06:15:22;;;;;;;82.68;65.82;;;22.40;56.30;;;;;;4946848;28;89289;-51
2022/08/08 06:17:50;;;;;;;79.82;62.53;;;22.30;56.10;;;;;;4940573;28;90145;-49
2022/08/08 06:20:15;;;;;;;76.25;62.80;;;22.20;56.90;;;;;;4948643;28;90645;-54
2022/08/08 06:22:41;;;;;;;79.35;65.20;;;22.20;57.10;;;;;;4938387;28;90796;-49
2022/08/08 06:25:07;;;;;;;75.25;62.28;;;22.30;56.70;;;;;;4940244;28;91728;-53
2022/08/08 06:27:55;;;;;;;74.82;61.42;;;22.30;57.20;;;;;;4941432;28;91251;-48
2022/08/08 06:30:21;;;;;;;77.35;63.90;;;22.20;57.10;;;;;;4940675;28;89900;-54
2022/08/08 06:32:47;;;;;;;74.97;59.28;;;22.30;56.80;;;;;;4938489;28;92390;-54
2022/08/08 06:35:15;;;;;;;74.00;60.53;;;22.20;57.10;;;;;;4947600;28;92528;-55
2022/08/08 06:37:51;;;;;;;77.07;60.00;;;22.40;56.60;;;;;;4937255;28;90401;-54
2022/08/08 06:40:18;;;;;;;75.78;58.47;;;22.50;56.70;;;;;;4948481;28;91739;-47
2022/08/08 06:43:13;;;;;;;71.22;56.78;;;22.40;56.80;;;;;;4943323;28;89919;-51
2022/08/08 06:45:40;;;;;;;71.75;58.95;;;22.50;57.10;;;;;;4940978;28;90445;-49
2022/08/08 06:48:07;;;;;;;73.68;60.00;;;22.50;57.00;;;;;;4937722;28;92221;-53
2022/08/08 06:50:34;;;;;;;69.90;58.20;;;22.50;56.30;;;;;;4936664;28;95158;-54
2022/08/08 06:53:01;;;;;;;75.03;59.13;;;22.50;56.20;;;;;;4933637;28;90115;-53
2022/08/08 06:55:28;;;;;;;72.38;56.60;;;22.50;56.50;;;;;;4942895;28;89921;-58
2022/08/08 06:57:54;;;;;;;69.38;58.17;;;22.50;57.00;;;;;;4940206;28;89902;-53
2022/08/08 07:00:20;;;;;;;76.30;58.88;;;22.50;57.30;;;;;;4929322;28;90788;-54
2022/08/08 07:02:53;;;;;;;72.65;57.72;;;22.40;57.00;;;;;;4935608;28;92673;-51
2022/08/08 07:05:24;;;;;;;73.63;56.55;;;22.50;57.50;;;;;;4940312;28;89318;-53
2022/08/08 07:08:04;;;;;;;75.20;58.58;;;22.60;57.40;;;;;;4934574;28;90598;-55
2022/08/08 07:10:34;;;;;;;72.20;57.40;;;22.60;57.30;;;;;;4940381;28;90346;-57
2022/08/08 07:13:08;;;;;;;75.60;59.22;;;22.50;57.40;;;;;;4938078;28;92476;-55
2022/08/08 07:15:44;;;;;;;72.03;59.00;;;22.60;57.20;;;;;;4937316;28;90459;-54
2022/08/08 07:18:11;;;;;;;70.85;59.10;;;22.70;57.10;;;;;;4939359;28;91663;-56
2022/08/08 07:20:40;;;;;;;70.45;57.75;;;22.70;56.90;;;;;;4936985;28;94395;-57
2022/08/08 07:23:29;;;;;;;71.90;57.35;;;22.60;57.20;;;;;;4934244;28;92930;-55
2022/08/08 07:26:01;;;;;;;70.70;57.42;;;22.70;57.90;;;;;;4934518;28;90801;-56
2022/08/08 07:28:27;;;;;;;69.13;55.97;;;22.80;57.40;;;;;;4938816;28;93679;-54
2022/08/08 07:30:54;;;;;;;69.65;56.92;;;22.70;56.70;;;;;;4945129;28;90893;-46
2022/08/08 07:33:23;;;;;;;69.45;56.33;;;22.80;56.80;;;;;;4940250;28;92329;-51
2022/08/08 07:35:49;;;;;;;68.13;55.42;;;22.80;56.80;;;;;;4939941;28;92835;-51
2022/08/08 07:38:18;;;;;;;69.40;54.78;;;22.80;56.30;;;;;;4932233;28;91101;-50
2022/08/08 07:40:45;;;;;;;69.22;55.53;;;22.90;56.80;;;;;;4942396;28;91721;-49
2022/08/08 07:43:12;;;;;;;66.97;54.25;;;22.90;56.10;;;;;;4934467;28;92866;-54
2022/08/08 07:45:41;;;;;;;66.20;54.70;;;22.90;56.60;;;;;;4936920;28;93701;-49
2022/08/08 07:48:06;;;;;;;66.72;54.13;;;22.90;55.80;;;;;;4918040;28;93215;-59
2022/08/08 07:50:33;;;;;;;66.93;53.67;;;22.90;55.50;;;;;;4935619;28;91131;-51
2022/08/08 07:53:17;;;;;;;64.90;53.47;;;23.00;56.10;;;;;;4937435;28;89923;-52
2022/08/08 07:55:47;;;;;;;73.70;55.95;;;23.10;56.10;;;;;;4946170;28;92892;-51
2022/08/08 07:58:31;;;;;;;66.57;55.28;;;23.10;55.20;;;;;;4925299;28;93956;-53
2022/08/08 08:01:05;;;;;;;65.53;53.55;;;23.20;55.20;;;;;;4943897;28;89652;-55
2022/08/08 08:03:43;;;;;;;64.63;53.63;;;23.10;55.20;;;;;;4930847;28;90943;-51
2022/08/08 08:06:12;;;;;;;65.75;53.78;;;23.20;55.30;;;;;;4935996;28;91154;-54
2022/08/08 08:08:41;;;;;;;67.20;53.17;;;23.10;54.00;;;;;;4938749;28;90878;-47
2022/08/08 08:11:14;;;;;;;66.50;53.17;;;23.10;54.70;;;;;;4938361;28;90190;-52
2022/08/08 08:13:52;;;;;;;65.60;52.65;;;23.10;54.50;;;;;;4943483;28;91574;-48
2022/08/08 08:16:21;;;;;;;65.68;52.95;;;23.10;53.30;;;;;;4936346;28;90827;-50
2022/08/08 08:18:56;;;;;;;63.08;52.33;;;23.20;53.30;;;;;;4948216;28;90423;-53
2022/08/08 08:21:26;;;;;;;64.00;53.13;;;23.20;54.40;;;;;;4946576;28;90069;-50
2022/08/08 08:23:52;;;;;;;67.25;53.25;;;23.30;53.70;;;;;;4927528;28;92321;-46
2022/08/08 08:26:18;;;;;;;64.25;53.08;;;23.30;53.10;;;;;;4945392;28;90629;-51
2022/08/08 08:28:44;;;;;;;67.03;53.17;;;23.40;52.90;;;;;;4948258;28;96820;-55
2022/08/08 08:31:10;;;;;;;66.05;53.42;;;23.40;53.20;;;;;;4940904;28;90714;-47
2022/08/08 08:33:35;;;;;;;63.05;52.67;;;23.40;52.70;;;;;;4949282;28;92244;-52
2022/08/08 08:36:03;;;;;;;63.70;52.90;;;23.40;52.60;;;;;;4933325;28;89920;-55
2022/08/08 08:38:29;;;;;;;64.00;52.95;;;23.40;52.40;;;;;;4933642;28;92283;-51
2022/08/08 08:40:55;;;;;;;66.32;52.92;;;23.40;52.40;;;;;;4934761;28;90767;-58
2022/08/08 08:43:22;;;;;;;64.50;53.33;;;23.40;52.30;;;;;;4939472;28;90821;-55
2022/08/08 08:45:48;;;;;;;63.95;53.00;;;23.50;52.40;;;;;;4929326;28;90687;-55
2022/08/08 08:48:17;;;;;;;63.78;52.33;;;23.50;52.00;;;;;;4926987;28;91840;-53
2022/08/08 08:50:44;;;;;;;66.95;52.05;;;23.50;52.70;;;;;;4937901;28;91365;-51
2022/08/08 08:53:11;;;;;;;66.60;52.95;;;23.60;52.80;;;;;;4939006;28;93200;-53
2022/08/08 08:55:38;;;;;;;66.82;52.95;;;23.70;51.50;;;;;;4941794;28;91199;-48
2022/08/08 08:58:06;;;;;;;63.22;52.67;;;23.70;51.30;;;;;;4937227;28;90679;-59
2022/08/08 09:00:35;;;;;;;64.15;52.65;;;23.60;51.50;;;;;;4933127;28;90233;-54
2022/08/08 09:03:07;;;;;;;67.40;53.28;;;23.70;51.30;;;;;;4933450;28;92405;-56
2022/08/08 09:05:38;;;;;;;63.30;52.20;;;23.70;50.80;;;;;;4929739;28;91105;-58
2022/08/08 09:08:06;;;;;;;65.03;53.28;;;23.70;51.80;;;;;;4937180;28;91235;-54
2022/08/08 09:10:36;;;;;;;68.30;52.97;;;23.70;51.10;;;;;;4947254;28;97527;-52
2022/08/08 09:13:03;;;;;;;65.70;53.33;;;23.80;50.40;;;;;;4934029;28;90596;-57
2022/08/08 09:15:29;;;;;;;68.15;52.70;;;23.70;51.10;;;;;;4941612;28;95883;-53
2022/08/08 09:17:56;;;;;;;64.43;52.95;;;23.80;51.10;;;;;;4932768;28;93125;-47
2022/08/08 09:20:25;;;;;;;64.90;52.83;;;23.80;51.30;;;;;;4942980;28;90783;-51
2022/08/08 09:22:53;;;;;;;65.78;52.53;;;23.80;51.30;;;;;;4932247;28;92571;-52
2022/08/08 09:25:19;;;;;;;68.22;53.35;;;23.90;51.30;;;;;;4946837;28;91875;-51
2022/08/08 09:27:45;;;;;;;65.05;52.83;;;24.00;50.90;;;;;;4935686;28;94396;-52
2022/08/08 09:30:16;;;;;;;66.70;53.08;;;23.90;50.80;;;;;;4925706;28;94567;-48
2022/08/08 09:32:46;;;;;;;68.47;52.20;;;23.90;51.00;;;;;;4925783;28;92521;-51
2022/08/08 09:35:19;;;;;;;65.85;53.17;;;24.00;51.00;;;;;;4927483;28;89322;-53
2022/08/08 09:37:52;;;;;;;64.95;53.03;;;24.10;50.70;;;;;;4937330;28;92837;-51
2022/08/08 09:40:21;;;;;;;63.47;52.60;;;24.20;50.60;;;;;;4928502;28;92921;-48
2022/08/08 09:43:11;;;;;;;64.85;52.75;;;24.20;50.30;;;;;;4934690;28;93368;-50
2022/08/08 09:45:49;;;;;;;66.32;52.72;;;24.20;49.90;;;;;;4930394;28;89803;-46
2022/08/08 09:48:16;;;;;;;67.20;52.45;;;24.30;49.70;;;;;;4927990;28;92951;-48
2022/08/08 09:50:45;;;;;;;65.30;52.42;;;24.30;50.10;;;;;;4929189;28;90346;-49
2022/08/08 09:53:16;;;;;;;65.57;53.13;;;24.30;50.10;;;;;;4940498;28;91242;-49
2022/08/08 09:55:44;;;;;;;68.80;53.03;;;24.40;49.40;;;;;;4930750;28;90177;-51
2022/08/08 09:58:18;;;;;;;65.97;52.35;;;24.40;49.00;;;;;;4939323;28;92809;-50
2022/08/08 10:00:46;;;;;;;65.45;52.42;;;24.20;49.70;;;;;;4935303;28;90636;-51
2022/08/08 10:03:16;;;;;;;64.90;51.78;;;24.30;50.00;;;;;;4927274;28;93026;-51
2022/08/08 10:05:43;;;;;;;64.50;52.23;;;24.30;47.90;;;;;;4937330;28;93291;-53
2022/08/08 10:08:09;;;;;;;64.85;52.63;;;24.40;49.30;;;;;;4932612;28;91845;-48
2022/08/08 10:10:42;;;;;;;67.15;52.95;;;24.40;48.90;;;;;;4935528;28;91429;-51
2022/08/08 10:13:22;;;;;;;77.65;53.15;;;24.50;49.80;;;;;;4938098;28;89735;-56
2022/08/08 10:15:50;;;;;;;67.05;52.80;;;24.70;49.50;;;;;;4940269;28;90535;-57
2022/08/08 10:18:30;;;;;;;67.68;52.60;;;24.70;49.30;;;;;;4941506;28;95909;-52
2022/08/08 10:21:08;;;;;;;68.50;53.15;;;24.80;49.20;;;;;;4948349;28;91704;-54
2022/08/08 10:23:34;;;;;;;66.32;52.63;;;24.80;49.00;;;;;;4940102;28;90606;-58
2022/08/08 10:26:02;;;;;;;67.38;52.80;;;24.90;49.00;;;;;;4936787;28;91286;-55
2022/08/08 10:28:30;;;;;;;71.70;52.72;;;24.90;48.80;;;;;;4937298;28;91901;-57
2022/08/08 10:30:59;;;;;;;64.93;52.83;;;25.00;48.60;;;;;;4940477;28;93054;-56
2022/08/08 10:33:32;;;;;;;68.45;52.63;;;25.00;48.60;;;;;;4941607;28;91572;-54
2022/08/08 10:36:03;;;;;;;66.60;52.35;;;25.00;48.40;;;;;;4948538;28;90063;-53
2022/08/08 10:38:30;;;;;;;63.83;52.08;;;25.00;48.20;;;;;;4925845;28;90159;-56
2022/08/08 10:41:02;;;;;;;68.82;52.55;;;25.00;48.00;;;;;;4949732;28;90399;-54
2022/08/08 10:43:41;;;;;;;65.68;52.30;;;25.10;48.10;;;;;;4945396;28;90658;-57
2022/08/08 10:46:25;;;;;;;66.07;52.30;;;25.10;48.10;;;;;;4949361;28;90632;-54
2022/08/08 10:48:53;;;;;;;66.78;51.92;;;25.10;48.00;;;;;;4932095;28;92906;-54
2022/08/08 10:51:19;;;;;;;64.63;51.97;;;25.10;47.90;;;;;;4936860;28;89203;-57
2022/08/08 10:53:51;;;;;;;68.35;52.30;;;25.10;48.00;;;;;;4932050;28;90031;-54
2022/08/08 10:56:17;;;;;;;66.40;52.38;;;25.10;47.90;;;;;;4945332;28;89829;-53
2022/08/08 10:58:43;;;;;;;64.82;52.03;;;25.10;48.00;;;;;;4939161;28;91060;-56
2022/08/08 11:01:10;;;;;;;64.80;52.20;;;25.20;47.80;;;;;;4943763;28;90332;-53
2022/08/08 11:03:44;;;;;;;64.97;51.90;;;25.20;47.70;;;;;;4943592;28;92823;-55
2022/08/08 11:06:11;;;;;;;65.65;52.20;;;25.20;47.70;;;;;;4943892;28;91202;-57
2022/08/08 11:08:38;;;;;;;64.75;52.03;;;25.20;47.80;;;;;;4935272;28;90546;-55
2022/08/08 11:11:09;;;;;;;63.88;52.13;;;25.20;47.90;;;;;;4940329;28;92159;-57
2022/08/08 11:13:44;;;;;;;63.60;52.05;;;25.20;47.90;;;;;;4938927;28;89869;-56
2022/08/08 11:16:22;;;;;;;64.15;52.00;;;25.20;48.00;;;;;;4949600;28;88999;-54
2022/08/08 11:18:52;;;;;;;65.50;51.85;;;25.20;48.00;;;;;;4942748;28;90977;-54
2022/08/08 11:21:19;;;;;;;63.27;51.70;;;25.10;48.20;;;;;;4946509;28;90734;-54
2022/08/08 11:23:46;;;;;;;63.88;51.80;;;25.10;48.40;;;;;;4940065;28;91955;-55
2022/08/08 11:26:19;;;;;;;65.05;51.97;;;25.10;48.40;;;;;;4933598;28;90133;-49
2022/08/08 11:28:45;;;;;;;63.35;51.95;;;25.10;48.30;;;;;;4938605;28;91245;-51
2022/08/08 11:31:14;;;;;;;63.45;51.63;;;25.20;48.30;;;;;;4929442;28;92312;-50
2022/08/08 11:33:51;;;;;;;65.35;51.90;;;25.20;48.20;;;;;;4932337;28;90622;-51
2022/08/08 11:36:17;;;;;;;82.85;52.05;;;25.20;48.40;;;;;;4938068;28;91339;-57
2022/08/08 11:38:45;;;;;;;65.63;51.78;;;25.20;48.40;;;;;;4924972;28;91388;-56
2022/08/08 11:41:11;;;;;;;66.45;51.75;;;25.30;48.60;;;;;;4931111;28;90881;-60
2022/08/08 11:43:38;;;;;;;68.93;52.03;;;25.40;49.10;;;;;;4929825;28;89669;-54
2022/08/08 11:46:04;;;;;;;69.18;51.97;;;25.40;49.70;;;;;;4929093;28;91607;-54
2022/08/08 11:48:31;;;;;;;64.93;51.97;;;25.40;49.60;;;;;;4935840;28;93493;-58
2022/08/08 11:50:59;;;;;;;66.85;51.60;;;25.30;49.40;;;;;;4933110;28;90620;-55
2022/08/08 11:53:25;;;;;;;65.45;51.65;;;25.30;49.70;;;;;;4937382;28;90077;-53
2022/08/08 11:55:51;;;;;;;69.63;52.70;;;25.20;49.70;;;;;;4935310;28;95650;-56
2022/08/08 11:58:17;;;;;;;70.20;52.38;;;25.40;49.30;;;;;;4947633;28;90365;-54
2022/08/08 12:00:51;;;;;;;71.40;53.13;;;25.40;49.40;;;;;;4935530;28;90135;-55
2022/08/08 12:03:19;;;;;;;70.18;52.53;;;25.50;50.10;;;;;;4929651;28;95147;-54
2022/08/08 12:05:46;;;;;;;66.57;52.80;;;25.50;49.80;;;;;;4941357;28;89016;-56
2022/08/08 12:08:12;;;;;;;64.80;52.17;;;25.50;49.70;;;;;;4944583;28;89989;-57
2022/08/08 12:10:51;;;;;;;66.75;52.20;;;25.60;49.70;;;;;;4936705;28;93356;-60
2022/08/08 12:13:24;;;;;;;67.07;52.25;;;25.60;49.80;;;;;;4946638;28;92208;-54
2022/08/08 12:15:50;;;;;;;64.13;52.33;;;25.60;49.70;;;;;;4935007;28;90354;-61
2022/08/08 12:18:25;;;;;;;65.68;52.00;;;25.70;49.70;;;;;;4919319;28;97673;-50
2022/08/08 12:20:53;;;;;;;68.32;52.70;;;25.70;49.70;;;;;;4939100;28;91368;-56
2022/08/08 12:23:30;;;;;;;69.07;52.42;;;25.70;49.80;;;;;;4939575;28;89765;-55
2022/08/08 12:25:55;;;;;;;69.10;52.63;;;25.80;49.80;;;;;;4940062;28;90157;-56
2022/08/08 12:28:21;;;;;;;70.45;52.55;;;25.80;49.80;;;;;;4934784;28;90906;-55
2022/08/08 12:30:47;;;;;;;68.88;52.42;;;25.80;49.90;;;;;;4950568;28;90931;-53
2022/08/08 12:33:23;;;;;;;64.90;52.60;;;25.80;49.90;;;;;;4938574;28;90663;-51
2022/08/08 12:35:49;;;;;;;67.97;52.53;;;25.80;49.80;;;;;;4945926;28;90075;-54
2022/08/08 12:38:15;;;;;;;66.68;53.00;;;25.80;49.70;;;;;;4940827;28;93294;-53
2022/08/08 12:40:49;;;;;;;68.43;52.35;;;25.80;49.70;;;;;;4932511;28;91214;-60
2022/08/08 12:43:18;;;;;;;68.03;52.40;;;25.80;49.60;;;;;;4934577;28;92801;-60
2022/08/08 12:45:45;;;;;;;67.30;52.63;;;25.80;49.70;;;;;;4928483;28;91554;-58
2022/08/08 12:48:20;;;;;;;67.38;52.42;;;25.90;49.60;;;;;;4936220;28;89984;-59
2022/08/08 12:50:48;;;;;;;66.03;52.15;;;25.90;49.50;;;;;;4929467;28;91065;-54
2022/08/08 12:53:29;;;;;;;74.25;52.58;;;25.90;49.60;;;;;;4937993;28;90740;-50
2022/08/08 12:55:56;;;;;;;66.75;52.38;;;25.90;49.80;;;;;;4948983;28;89159;-53
2022/08/08 12:58:26;;;;;;;69.40;52.45;;;26.00;50.00;;;;;;4941903;28;90705;-55
2022/08/08 13:00:53;;;;;;;66.43;52.97;;;26.00;50.10;;;;;;4928656;28;92786;-51
2022/08/08 13:03:26;;;;;;;66.18;52.17;;;26.00;50.10;;;;;;4940023;28;92351;-52
2022/08/08 13:06:08;;;;;;;64.63;52.38;;;26.00;50.30;;;;;;4940464;28;96353;-53